sensor_id;sensor_type;location;lat;lon;timestamp;P1;durP1;ratioP1;P2;durP2;ratioP2
19509;SDS011;9896;42.486;26.506;2022-10-16T00:01:03;7.77;;;3.70;;
19509;SDS011;9896;42.486;26.506;2022-10-16T00:03:34;10.33;;;4.40;;
19509;SDS011;9896;42.486;26.506;2022-10-16T00:06:00;6.80;;;4.27;;
19509;SDS011;9896;42.486;26.506;2022-10-16T00:08:26;5.97;;;3.73;;
19509;SDS011;9896;42.486;26.506;2022-10-16T00:10:52;10.33;;;4.17;;
19509;SDS011;9896;42.486;26.506;2022-10-16T00:13:17;9.73;;;4.27;;
19509;SDS011;9896;42.486;26.506;2022-10-16T00:15:44;7.80;;;4.37;;
19509;SDS011;9896;42.486;26.506;2022-10-16T00:18:11;11.27;;;4.70;;
19509;SDS011;9896;42.486;26.506;2022-10-16T00:20:37;11.87;;;5.80;;
19509;SDS011;9896;42.486;26.506;2022-10-16T00:23:03;11.70;;;7.00;;
19509;SDS011;9896;42.486;26.506;2022-10-16T00:25:30;12.10;;;7.40;;
19509;SDS011;9896;42.486;26.506;2022-10-16T00:27:57;10.83;;;7.00;;
19509;SDS011;9896;42.486;26.506;2022-10-16T00:30:24;11.40;;;6.53;;
19509;SDS011;9896;42.486;26.506;2022-10-16T00:32:51;10.77;;;5.67;;
19509;SDS011;9896;42.486;26.506;2022-10-16T00:35:17;10.03;;;4.87;;
19509;SDS011;9896;42.486;26.506;2022-10-16T00:37:42;9.17;;;5.13;;
19509;SDS011;9896;42.486;26.506;2022-10-16T00:40:08;8.00;;;4.83;;
19509;SDS011;9896;42.486;26.506;2022-10-16T00:42:35;8.50;;;4.80;;
19509;SDS011;9896;42.486;26.506;2022-10-16T00:45:00;12.27;;;5.43;;
19509;SDS011;9896;42.486;26.506;2022-10-16T00:47:27;8.80;;;5.10;;
19509;SDS011;9896;42.486;26.506;2022-10-16T00:49:57;8.50;;;5.03;;
19509;SDS011;9896;42.486;26.506;2022-10-16T00:52:26;10.23;;;5.73;;
19509;SDS011;9896;42.486;26.506;2022-10-16T00:54:52;10.83;;;5.47;;
19509;SDS011;9896;42.486;26.506;2022-10-16T00:57:19;11.83;;;5.83;;
19509;SDS011;9896;42.486;26.506;2022-10-16T00:59:45;13.07;;;6.80;;
19509;SDS011;9896;42.486;26.506;2022-10-16T01:02:12;7.97;;;6.00;;
19509;SDS011;9896;42.486;26.506;2022-10-16T01:04:41;10.23;;;6.63;;
19509;SDS011;9896;42.486;26.506;2022-10-16T01:10:03;14.80;;;7.23;;
19509;SDS011;9896;42.486;26.506;2022-10-16T01:17:45;15.10;;;8.50;;
19509;SDS011;9896;42.486;26.506;2022-10-16T01:20:21;14.80;;;7.90;;
19509;SDS011;9896;42.486;26.506;2022-10-16T01:25:26;17.67;;;10.33;;
19509;SDS011;9896;42.486;26.506;2022-10-16T01:28:02;14.50;;;10.43;;
19509;SDS011;9896;42.486;26.506;2022-10-16T01:30:31;17.83;;;11.70;;
19509;SDS011;9896;42.486;26.506;2022-10-16T01:33:05;19.67;;;13.07;;
19509;SDS011;9896;42.486;26.506;2022-10-16T01:35:41;23.47;;;13.03;;
19509;SDS011;9896;42.486;26.506;2022-10-16T01:38:30;15.87;;;12.60;;
19509;SDS011;9896;42.486;26.506;2022-10-16T01:41:14;21.37;;;13.17;;
19509;SDS011;9896;42.486;26.506;2022-10-16T01:43:49;18.57;;;12.30;;
19509;SDS011;9896;42.486;26.506;2022-10-16T01:46:23;20.50;;;13.63;;
19509;SDS011;9896;42.486;26.506;2022-10-16T01:48:50;19.00;;;13.07;;
19509;SDS011;9896;42.486;26.506;2022-10-16T01:51:17;16.57;;;12.70;;
19509;SDS011;9896;42.486;26.506;2022-10-16T01:53:46;18.93;;;12.03;;
19509;SDS011;9896;42.486;26.506;2022-10-16T01:56:15;20.97;;;13.47;;
19509;SDS011;9896;42.486;26.506;2022-10-16T01:58:45;19.17;;;13.63;;
19509;SDS011;9896;42.486;26.506;2022-10-16T02:01:18;21.20;;;13.37;;
19509;SDS011;9896;42.486;26.506;2022-10-16T02:03:45;23.77;;;13.97;;
19509;SDS011;9896;42.486;26.506;2022-10-16T02:06:14;26.07;;;13.20;;
19509;SDS011;9896;42.486;26.506;2022-10-16T02:08:40;20.80;;;13.17;;
19509;SDS011;9896;42.486;26.506;2022-10-16T02:11:09;18.60;;;12.80;;
19509;SDS011;9896;42.486;26.506;2022-10-16T02:13:55;20.90;;;13.23;;
19509;SDS011;9896;42.486;26.506;2022-10-16T02:16:41;17.50;;;12.70;;
19509;SDS011;9896;42.486;26.506;2022-10-16T02:19:09;20.17;;;12.97;;
19509;SDS011;9896;42.486;26.506;2022-10-16T02:21:47;23.87;;;13.37;;
19509;SDS011;9896;42.486;26.506;2022-10-16T02:26:52;17.13;;;12.50;;
19509;SDS011;9896;42.486;26.506;2022-10-16T02:29:22;20.33;;;13.20;;
19509;SDS011;9896;42.486;26.506;2022-10-16T02:31:50;19.90;;;13.00;;
19509;SDS011;9896;42.486;26.506;2022-10-16T02:34:22;18.30;;;12.87;;
19509;SDS011;9896;42.486;26.506;2022-10-16T02:36:50;17.90;;;11.77;;
19509;SDS011;9896;42.486;26.506;2022-10-16T02:39:18;18.90;;;11.83;;
19509;SDS011;9896;42.486;26.506;2022-10-16T02:41:45;15.93;;;11.87;;
19509;SDS011;9896;42.486;26.506;2022-10-16T02:44:11;19.67;;;11.13;;
19509;SDS011;9896;42.486;26.506;2022-10-16T02:46:36;23.37;;;11.77;;
19509;SDS011;9896;42.486;26.506;2022-10-16T02:49:02;16.90;;;11.27;;
19509;SDS011;9896;42.486;26.506;2022-10-16T02:51:27;20.60;;;12.03;;
19509;SDS011;9896;42.486;26.506;2022-10-16T02:53:53;17.13;;;11.50;;
19509;SDS011;9896;42.486;26.506;2022-10-16T02:56:18;17.43;;;11.03;;
19509;SDS011;9896;42.486;26.506;2022-10-16T02:58:44;14.30;;;10.47;;
19509;SDS011;9896;42.486;26.506;2022-10-16T03:01:09;15.40;;;10.37;;
19509;SDS011;9896;42.486;26.506;2022-10-16T03:03:37;18.97;;;11.30;;
19509;SDS011;9896;42.486;26.506;2022-10-16T03:06:02;17.93;;;10.80;;
19509;SDS011;9896;42.486;26.506;2022-10-16T03:08:28;13.73;;;10.93;;
19509;SDS011;9896;42.486;26.506;2022-10-16T03:10:54;20.17;;;11.73;;
19509;SDS011;9896;42.486;26.506;2022-10-16T03:13:19;17.00;;;11.30;;
19509;SDS011;9896;42.486;26.506;2022-10-16T03:15:45;18.27;;;11.17;;
19509;SDS011;9896;42.486;26.506;2022-10-16T03:18:11;16.27;;;10.53;;
19509;SDS011;9896;42.486;26.506;2022-10-16T03:20:36;19.77;;;10.30;;
19509;SDS011;9896;42.486;26.506;2022-10-16T03:23:02;15.90;;;10.43;;
19509;SDS011;9896;42.486;26.506;2022-10-16T03:25:28;16.87;;;11.43;;
19509;SDS011;9896;42.486;26.506;2022-10-16T03:27:53;13.43;;;10.20;;
19509;SDS011;9896;42.486;26.506;2022-10-16T03:30:19;19.37;;;10.63;;
19509;SDS011;9896;42.486;26.506;2022-10-16T03:32:44;17.07;;;10.27;;
19509;SDS011;9896;42.486;26.506;2022-10-16T03:35:11;14.77;;;9.17;;
19509;SDS011;9896;42.486;26.506;2022-10-16T03:37:37;13.37;;;10.10;;
19509;SDS011;9896;42.486;26.506;2022-10-16T03:40:03;17.10;;;10.10;;
19509;SDS011;9896;42.486;26.506;2022-10-16T03:42:29;14.33;;;9.70;;
19509;SDS011;9896;42.486;26.506;2022-10-16T03:44:55;16.57;;;10.60;;
19509;SDS011;9896;42.486;26.506;2022-10-16T03:47:20;15.43;;;10.43;;
19509;SDS011;9896;42.486;26.506;2022-10-16T03:49:48;19.13;;;11.87;;
19509;SDS011;9896;42.486;26.506;2022-10-16T03:52:14;16.33;;;11.23;;
19509;SDS011;9896;42.486;26.506;2022-10-16T03:54:40;18.23;;;11.27;;
19509;SDS011;9896;42.486;26.506;2022-10-16T03:57:06;20.40;;;11.87;;
19509;SDS011;9896;42.486;26.506;2022-10-16T03:59:31;16.63;;;11.20;;
19509;SDS011;9896;42.486;26.506;2022-10-16T04:01:56;17.70;;;10.27;;
19509;SDS011;9896;42.486;26.506;2022-10-16T04:04:22;16.50;;;11.03;;
19509;SDS011;9896;42.486;26.506;2022-10-16T04:06:47;15.47;;;10.77;;
19509;SDS011;9896;42.486;26.506;2022-10-16T04:09:13;16.23;;;11.23;;
19509;SDS011;9896;42.486;26.506;2022-10-16T04:11:38;14.33;;;9.80;;
19509;SDS011;9896;42.486;26.506;2022-10-16T04:14:04;21.70;;;11.10;;
19509;SDS011;9896;42.486;26.506;2022-10-16T04:16:29;13.53;;;10.37;;
19509;SDS011;9896;42.486;26.506;2022-10-16T04:18:55;16.93;;;10.87;;
19509;SDS011;9896;42.486;26.506;2022-10-16T04:21:20;20.63;;;11.83;;
19509;SDS011;9896;42.486;26.506;2022-10-16T04:23:46;22.03;;;11.27;;
19509;SDS011;9896;42.486;26.506;2022-10-16T04:26:11;19.47;;;11.77;;
19509;SDS011;9896;42.486;26.506;2022-10-16T04:28:37;18.80;;;12.87;;
19509;SDS011;9896;42.486;26.506;2022-10-16T04:31:05;17.43;;;11.63;;
19509;SDS011;9896;42.486;26.506;2022-10-16T04:33:31;20.30;;;11.73;;
19509;SDS011;9896;42.486;26.506;2022-10-16T04:35:57;19.57;;;11.97;;
19509;SDS011;9896;42.486;26.506;2022-10-16T04:38:23;19.80;;;12.63;;
19509;SDS011;9896;42.486;26.506;2022-10-16T04:40:49;18.00;;;11.63;;
19509;SDS011;9896;42.486;26.506;2022-10-16T04:43:15;20.17;;;12.63;;
19509;SDS011;9896;42.486;26.506;2022-10-16T04:45:40;15.60;;;11.80;;
19509;SDS011;9896;42.486;26.506;2022-10-16T04:48:06;17.10;;;12.03;;
19509;SDS011;9896;42.486;26.506;2022-10-16T04:50:31;19.77;;;11.37;;
19509;SDS011;9896;42.486;26.506;2022-10-16T04:52:57;25.83;;;11.73;;
19509;SDS011;9896;42.486;26.506;2022-10-16T04:55:22;17.87;;;11.57;;
19509;SDS011;9896;42.486;26.506;2022-10-16T04:57:48;16.17;;;10.80;;
19509;SDS011;9896;42.486;26.506;2022-10-16T05:00:13;13.93;;;11.17;;
19509;SDS011;9896;42.486;26.506;2022-10-16T05:02:39;18.50;;;10.63;;
19509;SDS011;9896;42.486;26.506;2022-10-16T05:05:04;18.20;;;10.93;;
19509;SDS011;9896;42.486;26.506;2022-10-16T05:07:30;15.23;;;9.93;;
19509;SDS011;9896;42.486;26.506;2022-10-16T05:09:56;15.20;;;10.63;;
19509;SDS011;9896;42.486;26.506;2022-10-16T05:12:23;17.13;;;11.70;;
19509;SDS011;9896;42.486;26.506;2022-10-16T05:14:49;20.43;;;14.03;;
19509;SDS011;9896;42.486;26.506;2022-10-16T05:17:14;19.90;;;14.33;;
19509;SDS011;9896;42.486;26.506;2022-10-16T05:19:40;24.65;;;15.50;;
19509;SDS011;9896;42.486;26.506;2022-10-16T05:22:05;24.53;;;14.93;;
19509;SDS011;9896;42.486;26.506;2022-10-16T05:24:31;23.30;;;14.97;;
19509;SDS011;9896;42.486;26.506;2022-10-16T05:26:56;22.23;;;14.77;;
19509;SDS011;9896;42.486;26.506;2022-10-16T05:29:22;24.43;;;13.13;;
19509;SDS011;9896;42.486;26.506;2022-10-16T05:31:49;34.13;;;16.73;;
19509;SDS011;9896;42.486;26.506;2022-10-16T05:34:16;22.73;;;13.87;;
19509;SDS011;9896;42.486;26.506;2022-10-16T05:36:42;21.63;;;13.30;;
19509;SDS011;9896;42.486;26.506;2022-10-16T05:39:10;20.53;;;13.33;;
19509;SDS011;9896;42.486;26.506;2022-10-16T05:41:35;28.63;;;12.03;;
19509;SDS011;9896;42.486;26.506;2022-10-16T05:44:03;24.20;;;12.47;;
19509;SDS011;9896;42.486;26.506;2022-10-16T05:46:30;23.60;;;12.47;;
19509;SDS011;9896;42.486;26.506;2022-10-16T05:48:55;21.97;;;12.40;;
19509;SDS011;9896;42.486;26.506;2022-10-16T05:51:20;23.80;;;12.30;;
19509;SDS011;9896;42.486;26.506;2022-10-16T05:53:46;16.87;;;11.67;;
19509;SDS011;9896;42.486;26.506;2022-10-16T05:56:12;16.70;;;10.10;;
19509;SDS011;9896;42.486;26.506;2022-10-16T05:58:38;17.03;;;9.70;;
19509;SDS011;9896;42.486;26.506;2022-10-16T06:01:15;16.33;;;9.43;;
19509;SDS011;9896;42.486;26.506;2022-10-16T06:03:42;18.03;;;10.67;;
19509;SDS011;9896;42.486;26.506;2022-10-16T06:06:09;14.63;;;9.93;;
19509;SDS011;9896;42.486;26.506;2022-10-16T06:08:36;17.60;;;10.10;;
19509;SDS011;9896;42.486;26.506;2022-10-16T06:11:04;14.27;;;10.20;;
19509;SDS011;9896;42.486;26.506;2022-10-16T06:13:31;15.80;;;9.93;;
19509;SDS011;9896;42.486;26.506;2022-10-16T06:15:57;25.47;;;11.33;;
19509;SDS011;9896;42.486;26.506;2022-10-16T06:18:24;18.90;;;10.60;;
19509;SDS011;9896;42.486;26.506;2022-10-16T06:20:50;20.60;;;10.30;;
19509;SDS011;9896;42.486;26.506;2022-10-16T06:23:16;21.60;;;10.67;;
19509;SDS011;9896;42.486;26.506;2022-10-16T06:25:41;16.30;;;10.40;;
19509;SDS011;9896;42.486;26.506;2022-10-16T06:28:07;17.63;;;11.17;;
19509;SDS011;9896;42.486;26.506;2022-10-16T06:30:32;15.70;;;9.27;;
19509;SDS011;9896;42.486;26.506;2022-10-16T06:32:57;16.90;;;9.90;;
19509;SDS011;9896;42.486;26.506;2022-10-16T06:35:23;17.90;;;10.30;;
19509;SDS011;9896;42.486;26.506;2022-10-16T06:37:49;15.20;;;9.33;;
19509;SDS011;9896;42.486;26.506;2022-10-16T06:40:14;17.20;;;9.20;;
19509;SDS011;9896;42.486;26.506;2022-10-16T06:42:40;15.23;;;8.10;;
19509;SDS011;9896;42.486;26.506;2022-10-16T06:45:06;13.43;;;7.63;;
19509;SDS011;9896;42.486;26.506;2022-10-16T06:47:37;11.67;;;7.30;;
19509;SDS011;9896;42.486;26.506;2022-10-16T06:50:03;11.83;;;7.20;;
19509;SDS011;9896;42.486;26.506;2022-10-16T06:52:31;17.83;;;8.77;;
19509;SDS011;9896;42.486;26.506;2022-10-16T06:54:57;13.90;;;8.60;;
19509;SDS011;9896;42.486;26.506;2022-10-16T06:57:22;12.70;;;7.17;;
19509;SDS011;9896;42.486;26.506;2022-10-16T06:59:47;10.67;;;6.27;;
19509;SDS011;9896;42.486;26.506;2022-10-16T07:02:13;11.10;;;6.10;;
19509;SDS011;9896;42.486;26.506;2022-10-16T07:04:38;13.70;;;5.70;;
19509;SDS011;9896;42.486;26.506;2022-10-16T07:07:04;8.43;;;4.70;;
19509;SDS011;9896;42.486;26.506;2022-10-16T07:09:30;11.33;;;5.50;;
19509;SDS011;9896;42.486;26.506;2022-10-16T07:11:55;7.17;;;4.03;;
19509;SDS011;9896;42.486;26.506;2022-10-16T07:14:21;9.30;;;4.40;;
19509;SDS011;9896;42.486;26.506;2022-10-16T07:16:47;6.17;;;4.00;;
19509;SDS011;9896;42.486;26.506;2022-10-16T07:19:13;11.07;;;4.23;;
19509;SDS011;9896;42.486;26.506;2022-10-16T07:21:40;4.93;;;4.00;;
19509;SDS011;9896;42.486;26.506;2022-10-16T07:24:07;13.90;;;3.73;;
19509;SDS011;9896;42.486;26.506;2022-10-16T07:26:38;7.87;;;3.90;;
19509;SDS011;9896;42.486;26.506;2022-10-16T07:29:04;7.50;;;3.57;;
19509;SDS011;9896;42.486;26.506;2022-10-16T07:31:40;7.90;;;4.10;;
19509;SDS011;9896;42.486;26.506;2022-10-16T07:34:06;10.10;;;3.83;;
19509;SDS011;9896;42.486;26.506;2022-10-16T07:36:31;4.93;;;3.80;;
19509;SDS011;9896;42.486;26.506;2022-10-16T07:38:57;7.00;;;4.27;;
19509;SDS011;9896;42.486;26.506;2022-10-16T07:41:22;6.33;;;3.40;;
19509;SDS011;9896;42.486;26.506;2022-10-16T07:43:49;6.83;;;4.10;;
19509;SDS011;9896;42.486;26.506;2022-10-16T07:46:17;7.83;;;4.57;;
19509;SDS011;9896;42.486;26.506;2022-10-16T07:48:43;7.57;;;4.43;;
19509;SDS011;9896;42.486;26.506;2022-10-16T07:51:17;14.63;;;4.50;;
19509;SDS011;9896;42.486;26.506;2022-10-16T07:53:44;9.70;;;4.67;;
19509;SDS011;9896;42.486;26.506;2022-10-16T07:56:10;8.37;;;4.33;;
19509;SDS011;9896;42.486;26.506;2022-10-16T07:58:36;6.43;;;4.30;;
19509;SDS011;9896;42.486;26.506;2022-10-16T08:01:03;6.50;;;4.33;;
19509;SDS011;9896;42.486;26.506;2022-10-16T08:03:30;8.17;;;4.40;;
19509;SDS011;9896;42.486;26.506;2022-10-16T08:05:56;9.07;;;4.90;;
19509;SDS011;9896;42.486;26.506;2022-10-16T08:08:22;8.77;;;4.90;;
19509;SDS011;9896;42.486;26.506;2022-10-16T08:10:48;6.33;;;4.57;;
19509;SDS011;9896;42.486;26.506;2022-10-16T08:13:13;6.50;;;4.77;;
19509;SDS011;9896;42.486;26.506;2022-10-16T08:15:40;5.50;;;4.53;;
19509;SDS011;9896;42.486;26.506;2022-10-16T08:18:10;5.17;;;3.67;;
19509;SDS011;9896;42.486;26.506;2022-10-16T08:20:37;9.40;;;4.53;;
19509;SDS011;9896;42.486;26.506;2022-10-16T08:23:02;6.50;;;4.70;;
19509;SDS011;9896;42.486;26.506;2022-10-16T08:25:28;5.43;;;4.23;;
19509;SDS011;9896;42.486;26.506;2022-10-16T08:27:54;10.47;;;4.90;;
19509;SDS011;9896;42.486;26.506;2022-10-16T08:30:20;5.67;;;4.27;;
19509;SDS011;9896;42.486;26.506;2022-10-16T08:32:47;6.83;;;4.93;;
19509;SDS011;9896;42.486;26.506;2022-10-16T08:35:13;8.20;;;4.60;;
19509;SDS011;9896;42.486;26.506;2022-10-16T08:37:40;7.60;;;4.20;;
19509;SDS011;9896;42.486;26.506;2022-10-16T08:40:06;5.70;;;4.33;;
19509;SDS011;9896;42.486;26.506;2022-10-16T08:48:19;6.20;;;4.20;;
19509;SDS011;9896;42.486;26.506;2022-10-16T08:51:00;9.30;;;4.57;;
19509;SDS011;9896;42.486;26.506;2022-10-16T08:53:30;7.73;;;4.70;;
19509;SDS011;9896;42.486;26.506;2022-10-16T08:56:01;6.10;;;4.27;;
19509;SDS011;9896;42.486;26.506;2022-10-16T08:58:28;5.80;;;4.23;;
19509;SDS011;9896;42.486;26.506;2022-10-16T09:01:00;8.73;;;4.40;;
19509;SDS011;9896;42.486;26.506;2022-10-16T09:03:42;6.67;;;4.50;;
19509;SDS011;9896;42.486;26.506;2022-10-16T09:22:47;6.43;;;4.50;;
19509;SDS011;9896;42.486;26.506;2022-10-16T09:25:14;6.40;;;4.13;;
19509;SDS011;9896;42.486;26.506;2022-10-16T09:27:46;7.10;;;4.03;;
19509;SDS011;9896;42.486;26.506;2022-10-16T09:30:14;4.67;;;4.00;;
19509;SDS011;9896;42.486;26.506;2022-10-16T09:32:45;6.33;;;4.37;;
19509;SDS011;9896;42.486;26.506;2022-10-16T09:35:22;8.13;;;3.83;;
19509;SDS011;9896;42.486;26.506;2022-10-16T09:37:57;8.10;;;4.23;;
19509;SDS011;9896;42.486;26.506;2022-10-16T09:40:24;6.57;;;4.07;;
19509;SDS011;9896;42.486;26.506;2022-10-16T09:43:30;11.00;;;3.60;;
19509;SDS011;9896;42.486;26.506;2022-10-16T09:45:56;9.13;;;4.50;;
19509;SDS011;9896;42.486;26.506;2022-10-16T09:48:23;6.73;;;4.00;;
19509;SDS011;9896;42.486;26.506;2022-10-16T09:50:56;7.40;;;4.10;;
19509;SDS011;9896;42.486;26.506;2022-10-16T09:53:22;7.47;;;3.70;;
19509;SDS011;9896;42.486;26.506;2022-10-16T09:55:50;8.13;;;3.43;;
19509;SDS011;9896;42.486;26.506;2022-10-16T09:58:17;5.80;;;3.20;;
19509;SDS011;9896;42.486;26.506;2022-10-16T10:00:48;4.87;;;3.47;;
19509;SDS011;9896;42.486;26.506;2022-10-16T10:06:05;5.97;;;3.40;;
19509;SDS011;9896;42.486;26.506;2022-10-16T10:08:56;5.73;;;3.90;;
19509;SDS011;9896;42.486;26.506;2022-10-16T10:11:41;8.10;;;4.23;;
19509;SDS011;9896;42.486;26.506;2022-10-16T10:14:17;8.10;;;4.03;;
19509;SDS011;9896;42.486;26.506;2022-10-16T10:16:46;6.03;;;4.10;;
19509;SDS011;9896;42.486;26.506;2022-10-16T10:19:22;7.93;;;4.40;;
19509;SDS011;9896;42.486;26.506;2022-10-16T10:21:51;9.77;;;4.40;;
19509;SDS011;9896;42.486;26.506;2022-10-16T10:24:18;6.57;;;3.67;;
19509;SDS011;9896;42.486;26.506;2022-10-16T10:26:50;10.70;;;4.37;;
19509;SDS011;9896;42.486;26.506;2022-10-16T10:32:09;5.67;;;3.83;;
19509;SDS011;9896;42.486;26.506;2022-10-16T10:34:59;6.97;;;4.03;;
19509;SDS011;9896;42.486;26.506;2022-10-16T10:40:30;5.03;;;3.50;;
19509;SDS011;9896;42.486;26.506;2022-10-16T10:43:21;3.73;;;3.03;;
19509;SDS011;9896;42.486;26.506;2022-10-16T10:46:10;4.57;;;3.40;;
19509;SDS011;9896;42.486;26.506;2022-10-16T10:51:30;4.03;;;3.50;;
19509;SDS011;9896;42.486;26.506;2022-10-16T11:11:06;4.70;;;3.27;;
19509;SDS011;9896;42.486;26.506;2022-10-16T11:13:49;6.03;;;3.50;;
19509;SDS011;9896;42.486;26.506;2022-10-16T11:16:32;7.77;;;3.73;;
19509;SDS011;9896;42.486;26.506;2022-10-16T11:19:21;7.10;;;3.80;;
19509;SDS011;9896;42.486;26.506;2022-10-16T11:22:03;4.87;;;3.43;;
19509;SDS011;9896;42.486;26.506;2022-10-16T11:24:37;9.23;;;4.30;;
19509;SDS011;9896;42.486;26.506;2022-10-16T11:27:09;8.70;;;4.00;;
19509;SDS011;9896;42.486;26.506;2022-10-16T11:29:43;7.37;;;3.60;;
19509;SDS011;9896;42.486;26.506;2022-10-16T11:32:19;4.07;;;3.67;;
19509;SDS011;9896;42.486;26.506;2022-10-16T11:34:57;6.70;;;3.60;;
19509;SDS011;9896;42.486;26.506;2022-10-16T11:37:31;7.47;;;3.70;;
19509;SDS011;9896;42.486;26.506;2022-10-16T11:43:02;4.50;;;3.13;;
19509;SDS011;9896;42.486;26.506;2022-10-16T11:45:51;6.93;;;3.33;;
19509;SDS011;9896;42.486;26.506;2022-10-16T11:48:35;9.00;;;3.80;;
19509;SDS011;9896;42.486;26.506;2022-10-16T11:51:25;9.53;;;4.33;;
19509;SDS011;9896;42.486;26.506;2022-10-16T11:56:48;7.93;;;3.60;;
19509;SDS011;9896;42.486;26.506;2022-10-16T11:59:30;6.23;;;4.97;;
19509;SDS011;9896;42.486;26.506;2022-10-16T12:07:26;5.87;;;3.43;;
19509;SDS011;9896;42.486;26.506;2022-10-16T12:10:09;5.47;;;3.50;;
19509;SDS011;9896;42.486;26.506;2022-10-16T12:12:48;4.33;;;3.67;;
19509;SDS011;9896;42.486;26.506;2022-10-16T12:17:52;8.73;;;3.33;;
19509;SDS011;9896;42.486;26.506;2022-10-16T12:22:49;6.43;;;3.33;;
19509;SDS011;9896;42.486;26.506;2022-10-16T12:30:39;5.87;;;3.30;;
19509;SDS011;9896;42.486;26.506;2022-10-16T12:33:06;7.43;;;3.17;;
19509;SDS011;9896;42.486;26.506;2022-10-16T12:35:46;5.73;;;3.23;;
19509;SDS011;9896;42.486;26.506;2022-10-16T12:38:18;8.07;;;4.00;;
19509;SDS011;9896;42.486;26.506;2022-10-16T12:40:54;4.03;;;3.50;;
19509;SDS011;9896;42.486;26.506;2022-10-16T12:46:34;6.40;;;3.30;;
19509;SDS011;9896;42.486;26.506;2022-10-16T12:48:49;5.10;;;3.27;;
19509;SDS011;9896;42.486;26.506;2022-10-16T12:51:25;8.57;;;4.13;;
19509;SDS011;9896;42.486;26.506;2022-10-16T12:54:00;5.20;;;3.10;;
19509;SDS011;9896;42.486;26.506;2022-10-16T12:56:40;6.80;;;3.33;;
19509;SDS011;9896;42.486;26.506;2022-10-16T13:10:59;6.13;;;4.20;;
19509;SDS011;9896;42.486;26.506;2022-10-16T13:13:34;6.83;;;4.40;;
19509;SDS011;9896;42.486;26.506;2022-10-16T13:16:12;6.17;;;3.90;;
19509;SDS011;9896;42.486;26.506;2022-10-16T13:21:38;6.07;;;3.40;;
19509;SDS011;9896;42.486;26.506;2022-10-16T13:24:19;7.03;;;3.87;;
19509;SDS011;9896;42.486;26.506;2022-10-16T13:30:10;5.90;;;3.30;;
19509;SDS011;9896;42.486;26.506;2022-10-16T13:32:40;8.37;;;4.07;;
19509;SDS011;9896;42.486;26.506;2022-10-16T13:35:21;6.57;;;3.50;;
19509;SDS011;9896;42.486;26.506;2022-10-16T13:37:49;7.03;;;3.93;;
19509;SDS011;9896;42.486;26.506;2022-10-16T13:40:20;6.43;;;3.80;;
19509;SDS011;9896;42.486;26.506;2022-10-16T13:42:48;7.33;;;3.20;;
19509;SDS011;9896;42.486;26.506;2022-10-16T13:45:18;7.07;;;3.53;;
19509;SDS011;9896;42.486;26.506;2022-10-16T13:47:48;4.37;;;3.80;;
19509;SDS011;9896;42.486;26.506;2022-10-16T13:50:15;12.47;;;4.17;;
19509;SDS011;9896;42.486;26.506;2022-10-16T13:52:42;7.30;;;4.77;;
19509;SDS011;9896;42.486;26.506;2022-10-16T13:55:15;7.33;;;3.97;;
19509;SDS011;9896;42.486;26.506;2022-10-16T13:57:42;6.43;;;3.90;;
19509;SDS011;9896;42.486;26.506;2022-10-16T14:02:52;5.37;;;3.30;;
19509;SDS011;9896;42.486;26.506;2022-10-16T14:05:26;6.87;;;3.30;;
19509;SDS011;9896;42.486;26.506;2022-10-16T14:07:52;4.87;;;3.60;;
19509;SDS011;9896;42.486;26.506;2022-10-16T14:10:26;5.57;;;3.87;;
19509;SDS011;9896;42.486;26.506;2022-10-16T14:15:30;9.63;;;3.90;;
19509;SDS011;9896;42.486;26.506;2022-10-16T14:17:58;6.07;;;3.80;;
19509;SDS011;9896;42.486;26.506;2022-10-16T14:20:26;5.57;;;3.63;;
19509;SDS011;9896;42.486;26.506;2022-10-16T14:25:29;8.23;;;4.60;;
19509;SDS011;9896;42.486;26.506;2022-10-16T14:28:00;9.03;;;3.70;;
19509;SDS011;9896;42.486;26.506;2022-10-16T14:30:49;7.40;;;3.37;;
19509;SDS011;9896;42.486;26.506;2022-10-16T14:33:23;6.77;;;3.10;;
19509;SDS011;9896;42.486;26.506;2022-10-16T14:36:12;7.47;;;3.40;;
19509;SDS011;9896;42.486;26.506;2022-10-16T14:38:40;8.30;;;3.37;;
19509;SDS011;9896;42.486;26.506;2022-10-16T14:41:08;5.33;;;3.07;;
19509;SDS011;9896;42.486;26.506;2022-10-16T14:43:34;6.10;;;3.50;;
19509;SDS011;9896;42.486;26.506;2022-10-16T14:46:03;6.13;;;2.73;;
19509;SDS011;9896;42.486;26.506;2022-10-16T14:48:51;5.83;;;2.90;;
19509;SDS011;9896;42.486;26.506;2022-10-16T14:51:22;5.17;;;2.87;;
19509;SDS011;9896;42.486;26.506;2022-10-16T14:53:48;5.90;;;2.80;;
19509;SDS011;9896;42.486;26.506;2022-10-16T14:56:16;5.40;;;3.20;;
19509;SDS011;9896;42.486;26.506;2022-10-16T14:58:44;5.60;;;3.20;;
19509;SDS011;9896;42.486;26.506;2022-10-16T15:01:10;11.40;;;3.33;;
19509;SDS011;9896;42.486;26.506;2022-10-16T15:03:36;11.60;;;3.27;;
19509;SDS011;9896;42.486;26.506;2022-10-16T15:06:03;9.33;;;3.20;;
19509;SDS011;9896;42.486;26.506;2022-10-16T15:08:28;9.03;;;3.17;;
19509;SDS011;9896;42.486;26.506;2022-10-16T15:10:54;10.03;;;3.60;;
19509;SDS011;9896;42.486;26.506;2022-10-16T15:13:20;7.70;;;3.50;;
19509;SDS011;9896;42.486;26.506;2022-10-16T15:15:46;11.03;;;4.30;;
19509;SDS011;9896;42.486;26.506;2022-10-16T15:18:14;8.40;;;4.50;;
19509;SDS011;9896;42.486;26.506;2022-10-16T15:20:44;9.03;;;3.83;;
19509;SDS011;9896;42.486;26.506;2022-10-16T15:23:16;6.37;;;3.63;;
19509;SDS011;9896;42.486;26.506;2022-10-16T15:25:47;9.27;;;3.33;;
19509;SDS011;9896;42.486;26.506;2022-10-16T15:28:15;10.60;;;3.97;;
19509;SDS011;9896;42.486;26.506;2022-10-16T15:30:42;6.03;;;3.77;;
19509;SDS011;9896;42.486;26.506;2022-10-16T15:33:19;6.73;;;4.00;;
19509;SDS011;9896;42.486;26.506;2022-10-16T15:35:51;6.37;;;4.00;;
19509;SDS011;9896;42.486;26.506;2022-10-16T15:38:17;14.73;;;4.37;;
19509;SDS011;9896;42.486;26.506;2022-10-16T15:40:44;9.23;;;3.90;;
19509;SDS011;9896;42.486;26.506;2022-10-16T15:43:11;7.27;;;3.70;;
19509;SDS011;9896;42.486;26.506;2022-10-16T15:45:37;13.73;;;3.83;;
19509;SDS011;9896;42.486;26.506;2022-10-16T15:48:03;7.40;;;3.20;;
19509;SDS011;9896;42.486;26.506;2022-10-16T15:50:29;10.83;;;3.83;;
19509;SDS011;9896;42.486;26.506;2022-10-16T15:52:55;11.57;;;4.50;;
19509;SDS011;9896;42.486;26.506;2022-10-16T15:55:21;7.37;;;3.70;;
19509;SDS011;9896;42.486;26.506;2022-10-16T15:57:46;9.57;;;3.87;;
19509;SDS011;9896;42.486;26.506;2022-10-16T16:00:13;9.07;;;4.33;;
19509;SDS011;9896;42.486;26.506;2022-10-16T16:02:49;10.43;;;4.33;;
19509;SDS011;9896;42.486;26.506;2022-10-16T16:05:17;11.83;;;3.80;;
19509;SDS011;9896;42.486;26.506;2022-10-16T16:07:42;10.80;;;3.30;;
19509;SDS011;9896;42.486;26.506;2022-10-16T16:10:09;10.33;;;3.40;;
19509;SDS011;9896;42.486;26.506;2022-10-16T16:12:35;7.20;;;3.87;;
19509;SDS011;9896;42.486;26.506;2022-10-16T16:15:02;6.47;;;3.50;;
19509;SDS011;9896;42.486;26.506;2022-10-16T16:17:30;5.37;;;3.33;;
19509;SDS011;9896;42.486;26.506;2022-10-16T16:19:56;7.83;;;3.80;;
19509;SDS011;9896;42.486;26.506;2022-10-16T16:22:21;7.53;;;4.20;;
19509;SDS011;9896;42.486;26.506;2022-10-16T16:24:47;9.87;;;3.40;;
19509;SDS011;9896;42.486;26.506;2022-10-16T16:27:12;5.60;;;3.80;;
19509;SDS011;9896;42.486;26.506;2022-10-16T16:29:38;5.63;;;3.47;;
19509;SDS011;9896;42.486;26.506;2022-10-16T16:32:04;4.67;;;2.97;;
19509;SDS011;9896;42.486;26.506;2022-10-16T16:34:30;4.00;;;3.13;;
19509;SDS011;9896;42.486;26.506;2022-10-16T16:36:56;7.90;;;3.40;;
19509;SDS011;9896;42.486;26.506;2022-10-16T16:39:22;6.30;;;3.07;;
19509;SDS011;9896;42.486;26.506;2022-10-16T16:41:48;10.00;;;3.10;;